Lachine, Michigan
Current Conditions -  °F | °C
As of 5:13 PM on Sunday 23 Nov 2014 (Local Time) from KAPN Reporting Station
Haze Haze  
Wind Chill: 41°   Ceiling: 900
Heat Index: 46°   Visibility: 5mi
Dew Point: 43°   Wind: 9mph
Humidity: 89%   Direction: 140°SE
Pressure: 29.62"   Gusts: NA
Location:  45.08°N, 83.72°W
Report Text: KAPN 232213Z AUTO 14008KT 5SM BR BKN009 OVC070 08/06 A2962 RMK AO2 RAE10 P0001 T00780061
Loading
Personal Weather Stations






























Interactive Weather Map New forecast layout! Learn more

10-Day Weather Forecast

Advertisements
Track Severe Weather on mobile